Terminal Aerodrome Forecast
Issued by NWS Melbourne, FL

Home | Current Version | Previous Version | Text Only | Print | Product List | Glossary On
Versions: 1 2 3 4 5 6 7 8 9 10 11 12 13 14 15 16 17 18 19 20 21 22 23 24 25 26
000
FTUS42 KMLB 050538
TAFMCO
TAF
KMCO 050538Z 0506/0606 06008KT P6SM VCSH BKN040 BKN250
     FM051400 07012G18KT P6SM SCT035 BKN080 BKN250
     FM051800 08017G24KT P6SM VCSH BKN040 BKN250
     FM060000 07011KT P6SM SCT040 SCT250=

USA.gov is the U.S. government's official web portal to all federal, state and local government web resources and services.